sensor_id;sensor_type;location;lat;lon;timestamp;temperature;humidity
55064;DHT22;40963;52.168;21.296;2023-09-19T00:00:42;19.20;99.90
55064;DHT22;40963;52.168;21.296;2023-09-19T00:03:09;19.20;99.90
55064;DHT22;40963;52.168;21.296;2023-09-19T00:05:36;19.20;99.90
55064;DHT22;40963;52.168;21.296;2023-09-19T00:08:04;19.20;99.90
55064;DHT22;40963;52.168;21.296;2023-09-19T00:10:30;19.10;99.90
55064;DHT22;40963;52.168;21.296;2023-09-19T00:12:57;19.10;99.90
55064;DHT22;40963;52.168;21.296;2023-09-19T00:15:26;19.10;99.90
55064;DHT22;40963;52.168;21.296;2023-09-19T00:17:55;19.00;99.90
55064;DHT22;40963;52.168;21.296;2023-09-19T00:20:21;19.00;99.90
55064;DHT22;40963;52.168;21.296;2023-09-19T00:22:49;19.00;99.90
55064;DHT22;40963;52.168;21.296;2023-09-19T00:25:19;18.90;99.90
55064;DHT22;40963;52.168;21.296;2023-09-19T00:27:46;18.90;99.90
55064;DHT22;40963;52.168;21.296;2023-09-19T00:30:13;18.90;99.90
55064;DHT22;40963;52.168;21.296;2023-09-19T00:32:46;18.80;99.90
55064;DHT22;40963;52.168;21.296;2023-09-19T00:35:17;18.80;99.90
55064;DHT22;40963;52.168;21.296;2023-09-19T00:37:43;18.70;99.90
55064;DHT22;40963;52.168;21.296;2023-09-19T00:40:09;18.70;99.90
55064;DHT22;40963;52.168;21.296;2023-09-19T00:42:48;18.70;99.90
55064;DHT22;40963;52.168;21.296;2023-09-19T00:45:16;18.70;99.90
55064;DHT22;40963;52.168;21.296;2023-09-19T00:47:47;18.70;99.90
55064;DHT22;40963;52.168;21.296;2023-09-19T00:50:16;18.60;99.90
55064;DHT22;40963;52.168;21.296;2023-09-19T00:52:43;18.60;99.90
55064;DHT22;40963;52.168;21.296;2023-09-19T00:55:10;18.60;99.90
55064;DHT22;40963;52.168;21.296;2023-09-19T00:57:37;18.50;99.90
55064;DHT22;40963;52.168;21.296;2023-09-19T01:00:04;18.50;99.90
55064;DHT22;40963;52.168;21.296;2023-09-19T01:02:35;18.50;99.90
55064;DHT22;40963;52.168;21.296;2023-09-19T01:05:01;18.40;99.90
55064;DHT22;40963;52.168;21.296;2023-09-19T01:07:29;18.40;99.90
55064;DHT22;40963;52.168;21.296;2023-09-19T01:10:02;18.40;99.90
55064;DHT22;40963;52.168;21.296;2023-09-19T01:15:37;18.40;99.90
55064;DHT22;40963;52.168;21.296;2023-09-19T01:23:39;18.40;99.90
55064;DHT22;40963;52.168;21.296;2023-09-19T01:26:17;18.30;99.90
55064;DHT22;40963;52.168;21.296;2023-09-19T01:28:53;18.30;99.90
55064;DHT22;40963;52.168;21.296;2023-09-19T01:31:23;18.30;99.90
55064;DHT22;40963;52.168;21.296;2023-09-19T01:36:23;18.30;99.90
55064;DHT22;40963;52.168;21.296;2023-09-19T01:38:50;18.30;99.90
55064;DHT22;40963;52.168;21.296;2023-09-19T01:41:26;18.30;99.90
55064;DHT22;40963;52.168;21.296;2023-09-19T01:43:55;18.30;99.90
55064;DHT22;40963;52.168;21.296;2023-09-19T01:46:25;18.30;99.90
55064;DHT22;40963;52.168;21.296;2023-09-19T01:51:53;18.20;99.90
55064;DHT22;40963;52.168;21.296;2023-09-19T01:54:31;18.20;99.90
55064;DHT22;40963;52.168;21.296;2023-09-19T01:57:09;18.20;99.90
55064;DHT22;40963;52.168;21.296;2023-09-19T01:59:45;18.20;99.90
55064;DHT22;40963;52.168;21.296;2023-09-19T02:02:14;18.20;99.90
55064;DHT22;40963;52.168;21.296;2023-09-19T02:04:40;18.20;99.90
55064;DHT22;40963;52.168;21.296;2023-09-19T02:07:06;18.20;99.90
55064;DHT22;40963;52.168;21.296;2023-09-19T02:09:31;18.20;99.90
55064;DHT22;40963;52.168;21.296;2023-09-19T02:12:01;18.20;99.90
55064;DHT22;40963;52.168;21.296;2023-09-19T02:14:29;18.20;99.90
55064;DHT22;40963;52.168;21.296;2023-09-19T02:16:56;18.10;99.90
55064;DHT22;40963;52.168;21.296;2023-09-19T02:19:22;18.10;99.90
55064;DHT22;40963;52.168;21.296;2023-09-19T02:21:47;18.10;99.90
55064;DHT22;40963;52.168;21.296;2023-09-19T02:24:14;18.10;99.90
55064;DHT22;40963;52.168;21.296;2023-09-19T02:26:40;18.10;99.90
55064;DHT22;40963;52.168;21.296;2023-09-19T02:29:06;18.10;99.90
55064;DHT22;40963;52.168;21.296;2023-09-19T02:31:32;18.10;99.90
55064;DHT22;40963;52.168;21.296;2023-09-19T02:33:57;18.10;99.90
55064;DHT22;40963;52.168;21.296;2023-09-19T02:36:23;18.10;99.90
55064;DHT22;40963;52.168;21.296;2023-09-19T02:38:50;18.20;99.90
55064;DHT22;40963;52.168;21.296;2023-09-19T02:41:16;18.20;99.90
55064;DHT22;40963;52.168;21.296;2023-09-19T02:43:41;18.10;99.90
55064;DHT22;40963;52.168;21.296;2023-09-19T02:46:08;18.20;99.90
55064;DHT22;40963;52.168;21.296;2023-09-19T02:48:34;18.20;99.90
55064;DHT22;40963;52.168;21.296;2023-09-19T02:51:01;18.20;99.90
55064;DHT22;40963;52.168;21.296;2023-09-19T02:53:27;18.20;99.90
55064;DHT22;40963;52.168;21.296;2023-09-19T02:55:53;18.20;99.90
55064;DHT22;40963;52.168;21.296;2023-09-19T02:58:18;18.20;99.90
55064;DHT22;40963;52.168;21.296;2023-09-19T03:00:44;18.10;99.90
55064;DHT22;40963;52.168;21.296;2023-09-19T03:03:15;18.10;99.90
55064;DHT22;40963;52.168;21.296;2023-09-19T03:05:41;18.10;99.90
55064;DHT22;40963;52.168;21.296;2023-09-19T03:08:12;18.10;99.90
55064;DHT22;40963;52.168;21.296;2023-09-19T03:10:40;18.10;99.90
55064;DHT22;40963;52.168;21.296;2023-09-19T03:13:06;18.10;99.90
55064;DHT22;40963;52.168;21.296;2023-09-19T03:15:35;18.10;99.90
55064;DHT22;40963;52.168;21.296;2023-09-19T03:18:04;18.10;99.90
55064;DHT22;40963;52.168;21.296;2023-09-19T03:20:30;18.10;99.90
55064;DHT22;40963;52.168;21.296;2023-09-19T03:22:56;18.10;99.90
55064;DHT22;40963;52.168;21.296;2023-09-19T03:25:22;18.20;99.90
55064;DHT22;40963;52.168;21.296;2023-09-19T03:27:48;18.10;99.90
55064;DHT22;40963;52.168;21.296;2023-09-19T03:30:14;18.10;99.90
55064;DHT22;40963;52.168;21.296;2023-09-19T03:32:46;18.10;99.90
55064;DHT22;40963;52.168;21.296;2023-09-19T03:35:12;18.10;99.90
55064;DHT22;40963;52.168;21.296;2023-09-19T03:37:40;18.10;99.90
55064;DHT22;40963;52.168;21.296;2023-09-19T03:40:07;18.10;99.90
55064;DHT22;40963;52.168;21.296;2023-09-19T03:42:33;18.10;99.90
55064;DHT22;40963;52.168;21.296;2023-09-19T03:45:01;18.10;99.90
55064;DHT22;40963;52.168;21.296;2023-09-19T03:47:29;18.10;99.90
55064;DHT22;40963;52.168;21.296;2023-09-19T03:49:55;18.10;99.90
55064;DHT22;40963;52.168;21.296;2023-09-19T03:52:20;18.10;99.90
55064;DHT22;40963;52.168;21.296;2023-09-19T03:54:46;18.10;99.90
55064;DHT22;40963;52.168;21.296;2023-09-19T03:57:11;18.10;99.90
55064;DHT22;40963;52.168;21.296;2023-09-19T03:59:38;18.00;99.90
55064;DHT22;40963;52.168;21.296;2023-09-19T04:02:03;18.10;99.90
55064;DHT22;40963;52.168;21.296;2023-09-19T04:04:30;18.00;99.90
55064;DHT22;40963;52.168;21.296;2023-09-19T04:06:56;18.10;99.90
55064;DHT22;40963;52.168;21.296;2023-09-19T04:09:21;18.00;99.90
55064;DHT22;40963;52.168;21.296;2023-09-19T04:11:47;18.00;99.90
55064;DHT22;40963;52.168;21.296;2023-09-19T04:14:13;18.00;99.90
55064;DHT22;40963;52.168;21.296;2023-09-19T04:16:38;18.00;99.90
55064;DHT22;40963;52.168;21.296;2023-09-19T04:19:04;18.00;99.90
55064;DHT22;40963;52.168;21.296;2023-09-19T04:21:30;18.00;99.90
55064;DHT22;40963;52.168;21.296;2023-09-19T04:23:56;18.00;99.90
55064;DHT22;40963;52.168;21.296;2023-09-19T04:26:22;18.00;99.90
55064;DHT22;40963;52.168;21.296;2023-09-19T04:28:47;18.10;99.90
55064;DHT22;40963;52.168;21.296;2023-09-19T04:31:13;18.10;99.90
55064;DHT22;40963;52.168;21.296;2023-09-19T04:33:39;18.00;99.90
55064;DHT22;40963;52.168;21.296;2023-09-19T04:36:05;18.10;99.90
55064;DHT22;40963;52.168;21.296;2023-09-19T04:38:33;18.10;99.90
55064;DHT22;40963;52.168;21.296;2023-09-19T04:40:58;18.10;99.90
55064;DHT22;40963;52.168;21.296;2023-09-19T04:43:25;18.10;99.90
55064;DHT22;40963;52.168;21.296;2023-09-19T04:45:50;18.20;99.90
55064;DHT22;40963;52.168;21.296;2023-09-19T04:48:16;18.10;99.90
55064;DHT22;40963;52.168;21.296;2023-09-19T04:50:42;18.20;99.90
55064;DHT22;40963;52.168;21.296;2023-09-19T04:53:08;18.20;99.90
55064;DHT22;40963;52.168;21.296;2023-09-19T04:55:34;18.20;99.90
55064;DHT22;40963;52.168;21.296;2023-09-19T04:57:59;18.20;99.90
55064;DHT22;40963;52.168;21.296;2023-09-19T05:00:25;18.20;99.90
55064;DHT22;40963;52.168;21.296;2023-09-19T05:02:55;18.30;99.90
55064;DHT22;40963;52.168;21.296;2023-09-19T05:05:21;18.30;99.90
55064;DHT22;40963;52.168;21.296;2023-09-19T05:07:49;18.30;99.90
55064;DHT22;40963;52.168;21.296;2023-09-19T05:10:14;18.30;99.90
55064;DHT22;40963;52.168;21.296;2023-09-19T05:12:41;18.30;99.90
55064;DHT22;40963;52.168;21.296;2023-09-19T05:15:08;18.40;99.90
55064;DHT22;40963;52.168;21.296;2023-09-19T05:17:34;18.40;99.90
55064;DHT22;40963;52.168;21.296;2023-09-19T05:20:01;18.40;99.90
55064;DHT22;40963;52.168;21.296;2023-09-19T05:22:40;18.40;99.90
55064;DHT22;40963;52.168;21.296;2023-09-19T05:25:07;18.50;99.90
55064;DHT22;40963;52.168;21.296;2023-09-19T05:27:33;18.50;99.90
55064;DHT22;40963;52.168;21.296;2023-09-19T05:30:02;18.50;99.90
55064;DHT22;40963;52.168;21.296;2023-09-19T05:32:27;18.60;99.90
55064;DHT22;40963;52.168;21.296;2023-09-19T05:34:53;18.60;99.90
55064;DHT22;40963;52.168;21.296;2023-09-19T05:37:21;18.60;99.90
55064;DHT22;40963;52.168;21.296;2023-09-19T05:39:49;18.70;99.90
55064;DHT22;40963;52.168;21.296;2023-09-19T05:42:14;18.70;99.90
55064;DHT22;40963;52.168;21.296;2023-09-19T05:44:40;18.70;99.90
55064;DHT22;40963;52.168;21.296;2023-09-19T05:47:05;18.80;99.90
55064;DHT22;40963;52.168;21.296;2023-09-19T05:49:35;18.80;99.90
55064;DHT22;40963;52.168;21.296;2023-09-19T05:52:06;18.80;99.90
55064;DHT22;40963;52.168;21.296;2023-09-19T05:54:32;18.80;99.90
55064;DHT22;40963;52.168;21.296;2023-09-19T05:57:00;18.90;99.90
55064;DHT22;40963;52.168;21.296;2023-09-19T05:59:25;18.90;99.90
55064;DHT22;40963;52.168;21.296;2023-09-19T06:01:51;18.90;99.90
55064;DHT22;40963;52.168;21.296;2023-09-19T06:04:17;18.90;99.90
55064;DHT22;40963;52.168;21.296;2023-09-19T06:06:44;19.00;99.90
55064;DHT22;40963;52.168;21.296;2023-09-19T06:09:10;19.00;99.90
55064;DHT22;40963;52.168;21.296;2023-09-19T06:11:36;19.00;99.90
55064;DHT22;40963;52.168;21.296;2023-09-19T06:14:02;19.10;99.90
55064;DHT22;40963;52.168;21.296;2023-09-19T06:16:31;19.10;99.90
55064;DHT22;40963;52.168;21.296;2023-09-19T06:19:00;19.10;99.90
55064;DHT22;40963;52.168;21.296;2023-09-19T06:21:27;19.20;99.90
55064;DHT22;40963;52.168;21.296;2023-09-19T06:23:53;19.20;99.90
55064;DHT22;40963;52.168;21.296;2023-09-19T06:26:19;19.30;99.90
55064;DHT22;40963;52.168;21.296;2023-09-19T06:28:45;19.30;99.90
55064;DHT22;40963;52.168;21.296;2023-09-19T06:31:10;19.30;99.90
55064;DHT22;40963;52.168;21.296;2023-09-19T06:33:37;19.30;99.90
55064;DHT22;40963;52.168;21.296;2023-09-19T06:36:06;19.40;99.90
55064;DHT22;40963;52.168;21.296;2023-09-19T06:38:32;19.40;99.90
55064;DHT22;40963;52.168;21.296;2023-09-19T06:41:02;19.50;99.90
55064;DHT22;40963;52.168;21.296;2023-09-19T06:43:33;19.50;99.90
55064;DHT22;40963;52.168;21.296;2023-09-19T06:46:00;19.50;99.90
55064;DHT22;40963;52.168;21.296;2023-09-19T06:48:26;19.60;99.90
55064;DHT22;40963;52.168;21.296;2023-09-19T06:50:57;19.60;99.90
55064;DHT22;40963;52.168;21.296;2023-09-19T06:53:33;19.70;99.90
55064;DHT22;40963;52.168;21.296;2023-09-19T06:56:01;19.70;99.90
55064;DHT22;40963;52.168;21.296;2023-09-19T06:58:27;19.70;99.90
55064;DHT22;40963;52.168;21.296;2023-09-19T07:00:52;19.70;99.90
55064;DHT22;40963;52.168;21.296;2023-09-19T07:03:19;19.70;99.90
55064;DHT22;40963;52.168;21.296;2023-09-19T07:05:47;19.70;99.90
55064;DHT22;40963;52.168;21.296;2023-09-19T07:08:13;19.80;99.90
55064;DHT22;40963;52.168;21.296;2023-09-19T07:10:40;19.80;99.90
55064;DHT22;40963;52.168;21.296;2023-09-19T07:13:07;19.80;99.90
55064;DHT22;40963;52.168;21.296;2023-09-19T07:15:35;19.80;99.90
55064;DHT22;40963;52.168;21.296;2023-09-19T07:18:13;19.90;99.90
55064;DHT22;40963;52.168;21.296;2023-09-19T07:20:40;20.00;99.90
55064;DHT22;40963;52.168;21.296;2023-09-19T07:23:11;20.00;99.90
55064;DHT22;40963;52.168;21.296;2023-09-19T07:25:39;20.00;99.90
55064;DHT22;40963;52.168;21.296;2023-09-19T07:28:05;20.10;99.90
55064;DHT22;40963;52.168;21.296;2023-09-19T07:30:31;20.10;99.90
55064;DHT22;40963;52.168;21.296;2023-09-19T07:32:56;20.20;99.90
55064;DHT22;40963;52.168;21.296;2023-09-19T07:35:22;20.30;99.90
55064;DHT22;40963;52.168;21.296;2023-09-19T07:37:48;20.40;99.90
55064;DHT22;40963;52.168;21.296;2023-09-19T07:40:15;20.60;99.90
55064;DHT22;40963;52.168;21.296;2023-09-19T07:42:41;20.60;99.90
55064;DHT22;40963;52.168;21.296;2023-09-19T07:45:08;20.80;99.90
55064;DHT22;40963;52.168;21.296;2023-09-19T07:47:34;20.80;99.90
55064;DHT22;40963;52.168;21.296;2023-09-19T07:50:01;20.90;99.90
55064;DHT22;40963;52.168;21.296;2023-09-19T07:52:28;21.00;99.90
55064;DHT22;40963;52.168;21.296;2023-09-19T07:54:55;21.10;99.90
55064;DHT22;40963;52.168;21.296;2023-09-19T07:57:22;21.20;99.90
55064;DHT22;40963;52.168;21.296;2023-09-19T07:59:48;21.30;99.90
55064;DHT22;40963;52.168;21.296;2023-09-19T08:02:13;21.30;99.90
55064;DHT22;40963;52.168;21.296;2023-09-19T08:04:44;21.40;99.90
55064;DHT22;40963;52.168;21.296;2023-09-19T08:07:11;21.40;99.90
55064;DHT22;40963;52.168;21.296;2023-09-19T08:09:37;21.50;99.90
55064;DHT22;40963;52.168;21.296;2023-09-19T08:12:04;21.50;99.90
55064;DHT22;40963;52.168;21.296;2023-09-19T08:14:30;21.50;99.90
55064;DHT22;40963;52.168;21.296;2023-09-19T08:16:58;21.50;99.90
55064;DHT22;40963;52.168;21.296;2023-09-19T08:19:25;21.50;99.90
55064;DHT22;40963;52.168;21.296;2023-09-19T08:21:55;21.50;99.90
55064;DHT22;40963;52.168;21.296;2023-09-19T08:24:21;21.50;99.90
55064;DHT22;40963;52.168;21.296;2023-09-19T08:26:47;21.60;99.90
55064;DHT22;40963;52.168;21.296;2023-09-19T08:29:13;21.60;99.90
55064;DHT22;40963;52.168;21.296;2023-09-19T08:31:39;21.60;99.90
55064;DHT22;40963;52.168;21.296;2023-09-19T08:34:05;21.70;99.90
55064;DHT22;40963;52.168;21.296;2023-09-19T08:36:31;21.70;99.90
55064;DHT22;40963;52.168;21.296;2023-09-19T08:38:57;21.70;99.90
55064;DHT22;40963;52.168;21.296;2023-09-19T08:41:23;21.80;99.90
55064;DHT22;40963;52.168;21.296;2023-09-19T08:43:49;21.80;99.90
55064;DHT22;40963;52.168;21.296;2023-09-19T08:46:16;21.80;99.90
55064;DHT22;40963;52.168;21.296;2023-09-19T08:48:57;21.70;99.90
55064;DHT22;40963;52.168;21.296;2023-09-19T08:51:42;21.70;99.90
55064;DHT22;40963;52.168;21.296;2023-09-19T08:54:17;21.70;99.90
55064;DHT22;40963;52.168;21.296;2023-09-19T08:56:48;21.60;99.90
55064;DHT22;40963;52.168;21.296;2023-09-19T08:59:24;21.70;99.90
55064;DHT22;40963;52.168;21.296;2023-09-19T09:01:51;21.70;99.90
55064;DHT22;40963;52.168;21.296;2023-09-19T09:04:19;21.60;99.90
55064;DHT22;40963;52.168;21.296;2023-09-19T09:06:46;21.60;99.90
55064;DHT22;40963;52.168;21.296;2023-09-19T09:09:18;21.60;99.90
55064;DHT22;40963;52.168;21.296;2023-09-19T09:11:45;21.60;99.90
55064;DHT22;40963;52.168;21.296;2023-09-19T09:14:11;21.60;99.90
55064;DHT22;40963;52.168;21.296;2023-09-19T09:16:38;21.70;99.90
55064;DHT22;40963;52.168;21.296;2023-09-19T09:19:04;21.70;99.90
55064;DHT22;40963;52.168;21.296;2023-09-19T09:21:30;21.70;99.90
55064;DHT22;40963;52.168;21.296;2023-09-19T09:24:27;21.70;99.90
55064;DHT22;40963;52.168;21.296;2023-09-19T09:26:54;21.70;99.90
55064;DHT22;40963;52.168;21.296;2023-09-19T09:29:50;21.60;99.90
55064;DHT22;40963;52.168;21.296;2023-09-19T09:34:53;21.60;99.90
55064;DHT22;40963;52.168;21.296;2023-09-19T09:37:19;21.60;99.90
55064;DHT22;40963;52.168;21.296;2023-09-19T09:42:35;21.60;99.90
55064;DHT22;40963;52.168;21.296;2023-09-19T09:45:18;21.60;99.90
55064;DHT22;40963;52.168;21.296;2023-09-19T09:48:24;21.60;99.90
55064;DHT22;40963;52.168;21.296;2023-09-19T09:50:57;21.60;99.90
55064;DHT22;40963;52.168;21.296;2023-09-19T09:53:27;21.60;99.90
55064;DHT22;40963;52.168;21.296;2023-09-19T09:58:28;21.50;99.90
55064;DHT22;40963;52.168;21.296;2023-09-19T10:01:01;21.50;99.90
55064;DHT22;40963;52.168;21.296;2023-09-19T10:03:37;21.50;99.90
55064;DHT22;40963;52.168;21.296;2023-09-19T10:06:10;21.50;99.90
55064;DHT22;40963;52.168;21.296;2023-09-19T10:09:07;21.40;99.90
55064;DHT22;40963;52.168;21.296;2023-09-19T10:11:39;21.40;99.90
55064;DHT22;40963;52.168;21.296;2023-09-19T10:14:07;21.30;99.90
55064;DHT22;40963;52.168;21.296;2023-09-19T10:16:34;21.30;99.90
55064;DHT22;40963;52.168;21.296;2023-09-19T10:19:07;21.20;99.90
55064;DHT22;40963;52.168;21.296;2023-09-19T10:21:36;21.20;99.90
55064;DHT22;40963;52.168;21.296;2023-09-19T10:24:03;21.10;99.90
55064;DHT22;40963;52.168;21.296;2023-09-19T10:26:30;21.00;99.90
55064;DHT22;40963;52.168;21.296;2023-09-19T10:28:57;20.90;99.90
55064;DHT22;40963;52.168;21.296;2023-09-19T10:31:28;20.90;99.90
55064;DHT22;40963;52.168;21.296;2023-09-19T10:33:56;20.90;99.90
55064;DHT22;40963;52.168;21.296;2023-09-19T10:36:26;20.80;99.90
55064;DHT22;40963;52.168;21.296;2023-09-19T10:38:57;20.70;99.90
55064;DHT22;40963;52.168;21.296;2023-09-19T10:41:24;20.60;99.90
55064;DHT22;40963;52.168;21.296;2023-09-19T10:43:51;20.60;99.90
55064;DHT22;40963;52.168;21.296;2023-09-19T10:46:19;20.50;99.90
55064;DHT22;40963;52.168;21.296;2023-09-19T10:48:45;20.40;99.90
55064;DHT22;40963;52.168;21.296;2023-09-19T10:51:21;20.30;99.90
55064;DHT22;40963;52.168;21.296;2023-09-19T10:54:12;20.20;99.90
55064;DHT22;40963;52.168;21.296;2023-09-19T10:56:43;20.00;99.90
55064;DHT22;40963;52.168;21.296;2023-09-19T10:59:15;19.90;99.90
55064;DHT22;40963;52.168;21.296;2023-09-19T11:01:49;19.70;99.90
55064;DHT22;40963;52.168;21.296;2023-09-19T11:09:52;19.50;99.90
55064;DHT22;40963;52.168;21.296;2023-09-19T11:18:53;19.40;99.90
55064;DHT22;40963;52.168;21.296;2023-09-19T11:26:45;19.30;99.90
55064;DHT22;40963;52.168;21.296;2023-09-19T11:29:26;19.30;99.90
55064;DHT22;40963;52.168;21.296;2023-09-19T11:31:53;19.30;99.90
55064;DHT22;40963;52.168;21.296;2023-09-19T11:34:40;19.20;99.90
55064;DHT22;40963;52.168;21.296;2023-09-19T11:39:40;19.30;99.90
55064;DHT22;40963;52.168;21.296;2023-09-19T11:42:46;19.30;99.90
55064;DHT22;40963;52.168;21.296;2023-09-19T11:47:59;19.30;99.90
55064;DHT22;40963;52.168;21.296;2023-09-19T11:50:28;19.30;99.90
55064;DHT22;40963;52.168;21.296;2023-09-19T11:52:57;19.30;99.90
55064;DHT22;40963;52.168;21.296;2023-09-19T11:55:25;19.20;99.90
55064;DHT22;40963;52.168;21.296;2023-09-19T11:57:55;19.30;99.90
55064;DHT22;40963;52.168;21.296;2023-09-19T12:00:20;19.30;99.90
55064;DHT22;40963;52.168;21.296;2023-09-19T12:02:50;19.30;99.90
55064;DHT22;40963;52.168;21.296;2023-09-19T12:05:28;19.30;99.90
55064;DHT22;40963;52.168;21.296;2023-09-19T12:07:54;19.30;99.90
55064;DHT22;40963;52.168;21.296;2023-09-19T12:10:20;19.30;99.90
55064;DHT22;40963;52.168;21.296;2023-09-19T12:12:49;19.30;99.90
55064;DHT22;40963;52.168;21.296;2023-09-19T12:15:15;19.40;99.90
55064;DHT22;40963;52.168;21.296;2023-09-19T12:17:48;19.30;99.90
55064;DHT22;40963;52.168;21.296;2023-09-19T12:20:14;19.30;99.90
55064;DHT22;40963;52.168;21.296;2023-09-19T12:22:41;19.30;99.90
55064;DHT22;40963;52.168;21.296;2023-09-19T12:25:09;19.40;99.90
55064;DHT22;40963;52.168;21.296;2023-09-19T12:27:49;19.40;99.90
55064;DHT22;40963;52.168;21.296;2023-09-19T12:30:18;19.40;99.90
55064;DHT22;40963;52.168;21.296;2023-09-19T12:32:45;19.40;99.90
55064;DHT22;40963;52.168;21.296;2023-09-19T12:35:33;19.40;99.90
55064;DHT22;40963;52.168;21.296;2023-09-19T12:38:02;19.40;99.90
55064;DHT22;40963;52.168;21.296;2023-09-19T12:40:30;19.40;99.90
55064;DHT22;40963;52.168;21.296;2023-09-19T12:42:59;19.40;99.90
55064;DHT22;40963;52.168;21.296;2023-09-19T12:45:25;19.40;99.90
55064;DHT22;40963;52.168;21.296;2023-09-19T12:48:19;19.40;99.90
55064;DHT22;40963;52.168;21.296;2023-09-19T12:53:34;19.40;99.90
55064;DHT22;40963;52.168;21.296;2023-09-19T12:56:03;19.40;99.90
55064;DHT22;40963;52.168;21.296;2023-09-19T12:58:34;19.40;99.90
55064;DHT22;40963;52.168;21.296;2023-09-19T13:01:00;19.40;99.90
55064;DHT22;40963;52.168;21.296;2023-09-19T13:03:30;19.40;99.90
55064;DHT22;40963;52.168;21.296;2023-09-19T13:06:02;19.30;99.90
55064;DHT22;40963;52.168;21.296;2023-09-19T13:08:35;19.30;99.90
55064;DHT22;40963;52.168;21.296;2023-09-19T13:11:12;19.30;99.90
55064;DHT22;40963;52.168;21.296;2023-09-19T13:17:01;19.30;99.90
55064;DHT22;40963;52.168;21.296;2023-09-19T13:22:42;19.30;99.90
55064;DHT22;40963;52.168;21.296;2023-09-19T13:25:09;19.40;99.90
55064;DHT22;40963;52.168;21.296;2023-09-19T13:28:01;19.40;99.90
55064;DHT22;40963;52.168;21.296;2023-09-19T13:30:30;19.40;99.90
55064;DHT22;40963;52.168;21.296;2023-09-19T13:33:09;19.40;99.90
55064;DHT22;40963;52.168;21.296;2023-09-19T13:35:36;19.40;99.90
55064;DHT22;40963;52.168;21.296;2023-09-19T13:38:04;19.50;99.90
55064;DHT22;40963;52.168;21.296;2023-09-19T13:40:29;19.40;99.90
55064;DHT22;40963;52.168;21.296;2023-09-19T13:42:56;19.40;99.90
55064;DHT22;40963;52.168;21.296;2023-09-19T13:45:22;19.50;99.90
55064;DHT22;40963;52.168;21.296;2023-09-19T13:47:50;19.50;99.90
55064;DHT22;40963;52.168;21.296;2023-09-19T13:50:15;19.50;99.90
55064;DHT22;40963;52.168;21.296;2023-09-19T13:52:42;19.50;99.90
55064;DHT22;40963;52.168;21.296;2023-09-19T13:55:08;19.50;99.90
55064;DHT22;40963;52.168;21.296;2023-09-19T13:57:34;19.50;99.90
55064;DHT22;40963;52.168;21.296;2023-09-19T13:59:59;19.40;99.90
55064;DHT22;40963;52.168;21.296;2023-09-19T14:02:25;19.40;99.90
55064;DHT22;40963;52.168;21.296;2023-09-19T14:04:54;19.40;99.90
55064;DHT22;40963;52.168;21.296;2023-09-19T14:07:20;19.40;99.90
55064;DHT22;40963;52.168;21.296;2023-09-19T14:09:46;19.40;99.90
55064;DHT22;40963;52.168;21.296;2023-09-19T14:12:12;19.40;99.90
55064;DHT22;40963;52.168;21.296;2023-09-19T14:14:38;19.40;99.90
55064;DHT22;40963;52.168;21.296;2023-09-19T14:17:04;19.50;99.90
55064;DHT22;40963;52.168;21.296;2023-09-19T14:19:30;19.50;99.90
55064;DHT22;40963;52.168;21.296;2023-09-19T14:21:56;19.50;99.90
55064;DHT22;40963;52.168;21.296;2023-09-19T14:24:22;19.50;99.90
55064;DHT22;40963;52.168;21.296;2023-09-19T14:26:48;19.50;99.90
55064;DHT22;40963;52.168;21.296;2023-09-19T14:29:15;19.50;99.90
55064;DHT22;40963;52.168;21.296;2023-09-19T14:31:41;19.50;99.90
55064;DHT22;40963;52.168;21.296;2023-09-19T14:34:07;19.50;99.90
55064;DHT22;40963;52.168;21.296;2023-09-19T14:36:36;19.50;99.90
55064;DHT22;40963;52.168;21.296;2023-09-19T14:39:01;19.50;99.90
55064;DHT22;40963;52.168;21.296;2023-09-19T14:41:27;19.50;99.90
55064;DHT22;40963;52.168;21.296;2023-09-19T14:43:53;19.50;99.90
55064;DHT22;40963;52.168;21.296;2023-09-19T14:46:21;19.50;99.90
55064;DHT22;40963;52.168;21.296;2023-09-19T14:48:47;19.50;99.90
55064;DHT22;40963;52.168;21.296;2023-09-19T14:51:13;19.50;99.90
55064;DHT22;40963;52.168;21.296;2023-09-19T14:53:39;19.50;99.90
55064;DHT22;40963;52.168;21.296;2023-09-19T14:56:06;19.50;99.90
55064;DHT22;40963;52.168;21.296;2023-09-19T14:58:33;19.50;99.90
55064;DHT22;40963;52.168;21.296;2023-09-19T15:01:09;19.50;99.90
55064;DHT22;40963;52.168;21.296;2023-09-19T15:03:38;19.50;99.90
55064;DHT22;40963;52.168;21.296;2023-09-19T15:06:11;19.50;99.90
55064;DHT22;40963;52.168;21.296;2023-09-19T15:08:41;19.50;99.90
55064;DHT22;40963;52.168;21.296;2023-09-19T15:11:11;19.50;99.90
55064;DHT22;40963;52.168;21.296;2023-09-19T15:13:38;19.60;99.90
55064;DHT22;40963;52.168;21.296;2023-09-19T15:16:07;19.60;99.90
55064;DHT22;40963;52.168;21.296;2023-09-19T15:18:37;19.50;99.90
55064;DHT22;40963;52.168;21.296;2023-09-19T15:21:04;19.50;99.90
55064;DHT22;40963;52.168;21.296;2023-09-19T15:23:33;19.50;99.90
55064;DHT22;40963;52.168;21.296;2023-09-19T15:26:21;19.50;99.90
55064;DHT22;40963;52.168;21.296;2023-09-19T15:28:47;19.50;99.90
55064;DHT22;40963;52.168;21.296;2023-09-19T15:31:14;19.50;99.90
55064;DHT22;40963;52.168;21.296;2023-09-19T15:33:39;19.50;99.90
55064;DHT22;40963;52.168;21.296;2023-09-19T15:36:10;19.50;99.90
55064;DHT22;40963;52.168;21.296;2023-09-19T15:39:01;19.50;99.90
55064;DHT22;40963;52.168;21.296;2023-09-19T15:41:31;19.60;99.90
55064;DHT22;40963;52.168;21.296;2023-09-19T15:43:58;19.50;99.90
55064;DHT22;40963;52.168;21.296;2023-09-19T15:46:27;19.50;99.90
55064;DHT22;40963;52.168;21.296;2023-09-19T15:48:54;19.50;99.90
55064;DHT22;40963;52.168;21.296;2023-09-19T15:51:20;19.50;99.90
55064;DHT22;40963;52.168;21.296;2023-09-19T15:53:48;19.50;99.90
55064;DHT22;40963;52.168;21.296;2023-09-19T15:56:15;19.50;99.90
55064;DHT22;40963;52.168;21.296;2023-09-19T15:58:44;19.50;99.90
55064;DHT22;40963;52.168;21.296;2023-09-19T16:01:10;19.50;99.90
55064;DHT22;40963;52.168;21.296;2023-09-19T16:03:37;19.50;99.90
55064;DHT22;40963;52.168;21.296;2023-09-19T16:06:15;19.50;99.90
55064;DHT22;40963;52.168;21.296;2023-09-19T16:08:46;19.50;99.90
55064;DHT22;40963;52.168;21.296;2023-09-19T16:11:13;19.50;99.90
55064;DHT22;40963;52.168;21.296;2023-09-19T16:13:40;19.50;99.90
55064;DHT22;40963;52.168;21.296;2023-09-19T16:16:12;19.50;99.90
55064;DHT22;40963;52.168;21.296;2023-09-19T16:18:40;19.40;99.90